Time;durP1;ratioP1;P1;durP2;ratioP2;P2;SDS_P1;SDS_P2;PMS_P1;PMS_P2;Temp;Humidity;BMP_temperature;BMP_pressure;BME280_temperature;BME280_humidity;BME280_pressure;Samples;Min_cycle;Max_cycle;Signal;HPM_P1;HPM_P2
2022/11/11 00:02:31;;;;;;;25.80;14.45;;;;;;;11.88;63.07;101645.00;4933560;28;97205;-84
2022/11/11 00:05:15;;;;;;;24.77;13.88;;;;;;;11.81;63.11;101643.38;4929879;28;98125;-85
2022/11/11 00:07:59;;;;;;;22.88;11.68;;;;;;;11.81;63.41;101638.09;4927154;28;97601;-83
2022/11/11 00:10:44;;;;;;;38.30;19.25;;;;;;;11.81;63.45;101632.84;4921464;28;96866;-83
2022/11/11 00:13:29;;;;;;;30.05;16.42;;;;;;;11.71;63.19;101611.06;4933428;28;97052;-83
2022/11/11 00:16:18;;;;;;;28.08;14.55;;;;;;;11.85;63.25;101626.66;4925729;28;97627;-83
2022/11/11 00:25:17;;;;;;;23.67;12.27;;;;;;;11.83;63.10;101619.63;4939743;28;97637;-84
2022/11/11 00:28:01;;;;;;;22.02;10.73;;;;;;;11.81;63.24;101622.31;4932446;28;97952;-84
2022/11/11 00:30:45;;;;;;;20.40;9.30;;;;;;;11.79;62.81;101618.84;4949975;28;97074;-82
2022/11/11 00:33:28;;;;;;;18.02;9.20;;;;;;;11.79;63.15;101626.72;4938170;28;97429;-83
2022/11/11 00:36:12;;;;;;;16.58;9.50;;;;;;;11.77;63.55;101625.88;4922308;28;96754;-83
2022/11/11 00:38:57;;;;;;;18.05;9.50;;;;;;;11.66;63.34;101605.03;4921785;28;98788;-83
2022/11/11 00:41:40;;;;;;;21.55;9.18;;;;;;;11.78;63.35;101619.75;4920190;28;98421;-83
2022/11/11 00:44:24;;;;;;;21.55;9.80;;;;;;;11.77;63.50;101631.13;4931204;28;97282;-83
2022/11/11 00:53:19;;;;;;;15.57;7.95;;;;;;;11.71;63.29;101620.72;4940479;28;97366;-84
2022/11/11 00:56:03;;;;;;;14.77;7.30;;;;;;;11.73;63.35;101619.81;4922224;28;96812;-82
2022/11/11 00:58:47;;;;;;;14.77;8.07;;;;;;;11.72;63.29;101627.72;4918060;28;97298;-83
2022/11/11 01:01:32;;;;;;;15.65;7.75;;;;;;;11.72;63.57;101625.09;4914413;28;97145;-83
2022/11/11 01:04:16;;;;;;;20.33;7.20;;;;;;;11.72;63.15;101622.47;4915509;28;97478;-83
2022/11/11 01:07:00;;;;;;;12.70;6.53;;;;;;;11.61;63.88;101616.56;4936666;28;97453;-83
2022/11/11 01:09:44;;;;;;;11.63;7.07;;;;;;;11.70;63.40;101634.78;4925987;28;96793;-84
2022/11/11 01:12:28;;;;;;;11.63;6.93;;;;;;;11.66;63.41;101623.44;4920100;28;97168;-83
2022/11/11 01:15:12;;;;;;;16.23;6.65;;;;;;;11.68;63.47;101629.53;4927994;28;97139;-87
2022/11/11 01:17:56;;;;;;;12.13;6.50;;;;;;;11.59;63.43;101619.19;4950479;28;96733;-84
2022/11/11 01:20:40;;;;;;;16.77;7.13;;;;;;;11.62;63.51;101628.78;4934264;28;97198;-84
2022/11/11 01:23:24;;;;;;;12.23;6.70;;;;;;;11.65;63.20;101634.00;4920478;28;97166;-83
2022/11/11 01:26:37;;;;;;;15.38;7.63;;;;;;;11.68;63.38;101637.44;4935443;28;97053;-85
2022/11/11 01:29:21;;;;;;;10.95;6.55;;;;;;;11.65;63.28;101639.25;4939973;28;97257;-83
2022/11/11 01:32:05;;;;;;;13.13;6.53;;;;;;;11.65;63.56;101642.75;4937410;28;96878;-89
2022/11/11 01:34:49;;;;;;;18.02;7.05;;;;;;;11.65;63.50;101640.13;4940347;28;97182;-83
2022/11/11 01:37:33;;;;;;;12.98;6.60;;;;;;;11.66;63.23;101633.94;4917263;28;97055;-83
2022/11/11 01:40:17;;;;;;;15.80;7.78;;;;;;;11.63;62.96;101623.50;4914660;28;96809;-84
2022/11/11 01:43:05;;;;;;;14.50;8.13;;;;;;;11.63;63.24;101626.13;4920278;28;97110;-84
2022/11/11 01:45:58;;;;;;;18.45;7.65;;;;;;;11.62;63.44;101610.38;4951995;28;97164;-83
2022/11/11 01:52:18;;;;;;;47.58;20.95;;;;;;;11.61;63.47;101600.78;4930405;28;97179;-83
2022/11/11 01:55:05;;;;;;;33.85;16.17;;;;;;;11.59;63.56;101605.19;4953317;28;96669;-83
2022/11/11 01:58:13;;;;;;;38.40;16.85;;;;;;;11.57;63.30;101606.06;4932286;28;97143;-84
2022/11/11 02:00:59;;;;;;;30.75;14.75;;;;;;;11.51;63.35;101598.28;4914666;28;100717;-89
2022/11/11 02:05:40;;;;;;;29.95;14.90;;;;;;;11.56;63.37;101604.31;4914990;28;97150;-83
2022/11/11 02:06:48;;;;;;;14.18;8.13;;;;;;;11.55;63.29;101604.38;4936749;28;97274;-83
2022/11/11 02:09:33;;;;;;;19.35;8.30;;;;;;;11.51;63.03;101602.66;4935124;28;97218;-83
2022/11/11 02:15:19;;;;;;;16.58;8.68;;;;;;;11.46;62.81;101594.88;4939753;28;97301;-83
2022/11/11 02:18:04;;;;;;;14.95;8.18;;;;;;;11.37;63.29;101581.88;4915100;28;96909;-84
2022/11/11 02:20:49;;;;;;;16.00;8.70;;;;;;;11.43;63.12;101599.31;4927253;28;97149;-83
2022/11/11 02:23:44;;;;;;;12.82;7.75;;;;;;;11.36;63.13;101603.81;4919973;28;97206;-86
2022/11/11 02:26:30;;;;;;;15.38;7.55;;;;;;;11.24;62.92;101598.75;4920106;28;97970;-83
2022/11/11 02:29:16;;;;;;;15.75;7.03;;;;;;;11.23;63.20;101600.53;4915892;28;97399;-83
2022/11/11 02:32:00;;;;;;;16.23;8.48;;;;;;;11.18;63.41;101609.38;4934132;28;97257;-83
2022/11/11 02:34:44;;;;;;;16.27;8.10;;;;;;;11.14;63.58;101610.31;4936269;28;97046;-83
2022/11/11 02:37:28;;;;;;;19.58;8.27;;;;;;;11.12;63.18;101620.84;4929593;28;96925;-84
2022/11/11 02:40:16;;;;;;;11.70;7.75;;;;;;;11.08;63.58;101621.78;4919291;28;97277;-83
2022/11/11 02:43:00;;;;;;;14.40;7.63;;;;;;;11.07;63.48;101620.03;4935791;28;97649;-84
2022/11/11 02:45:44;;;;;;;13.05;8.07;;;;;;;11.03;63.32;101613.97;4931130;28;97815;-83
2022/11/11 02:48:29;;;;;;;17.48;8.25;;;;;;;11.06;63.18;101615.69;4941274;28;96780;-85
2022/11/11 02:51:13;;;;;;;17.73;9.15;;;;;;;10.86;63.37;101587.97;4926863;28;96740;-83
2022/11/11 02:53:57;;;;;;;17.95;7.28;;;;;;;10.98;63.25;101607.91;4931651;28;97149;-87
2022/11/11 02:59:44;;;;;;;15.23;8.23;;;;;;;11.06;63.08;101602.56;4938683;28;96754;-83
2022/11/11 03:02:28;;;;;;;16.10;8.65;;;;;;;10.98;63.36;101610.53;4935119;28;96749;-83
2022/11/11 03:05:13;;;;;;;18.20;9.10;;;;;;;10.99;63.57;101600.91;4932249;28;97219;-83
2022/11/11 03:07:57;;;;;;;23.05;9.52;;;;;;;11.00;63.57;101597.41;4916502;28;97256;-88
2022/11/11 03:10:40;;;;;;;15.48;8.57;;;;;;;11.03;63.53;101603.47;4917286;28;97032;-84
2022/11/11 03:13:24;;;;;;;19.48;9.75;;;;;;;11.07;63.45;101602.50;4934456;28;96777;-83
2022/11/11 03:17:38;;;;;;;15.65;8.45;;;;;;;11.05;63.32;101604.31;4918282;28;98183;-83
2022/11/11 03:19:12;;;;;;;12.68;8.38;;;;;;;11.03;63.20;101606.09;4951300;28;97069;-83
2022/11/11 03:21:57;;;;;;;17.60;9.07;;;;;;;10.99;63.12;101608.78;4936885;28;97256;-83
2022/11/11 03:27:52;;;;;;;18.20;8.38;;;;;;;10.92;63.61;101615.03;4923621;28;97287;-83
2022/11/11 03:30:38;;;;;;;15.43;9.30;;;;;;;10.91;63.15;101621.16;4921934;28;97059;-83
2022/11/11 03:33:21;;;;;;;15.45;7.80;;;;;;;10.86;63.56;101619.47;4916912;28;97027;-86
2022/11/11 03:36:06;;;;;;;14.88;9.25;;;;;;;10.86;63.68;101616.00;4922331;28;97361;-83
2022/11/11 03:38:50;;;;;;;19.23;9.60;;;;;;;10.86;63.58;101618.63;4939374;28;97046;-83
2022/11/11 03:41:34;;;;;;;16.05;10.13;;;;;;;10.92;63.76;101630.78;4931153;28;97428;-83
2022/11/11 03:44:18;;;;;;;17.27;9.02;;;;;;;10.93;64.02;101635.16;4930317;28;96905;-83
2022/11/11 03:47:02;;;;;;;18.23;9.65;;;;;;;10.99;63.71;101628.03;4921791;28;96694;-85
2022/11/11 03:49:46;;;;;;;19.27;9.77;;;;;;;11.00;63.60;101631.56;4922132;28;97314;-83
2022/11/11 03:52:29;;;;;;;13.98;9.80;;;;;;;10.97;63.92;101635.09;4938448;28;96991;-83
2022/11/11 03:55:14;;;;;;;15.98;9.55;;;;;;;10.92;63.81;101636.06;4952352;28;97038;-84
2022/11/11 03:57:57;;;;;;;14.80;8.65;;;;;;;10.90;63.88;101641.31;4922237;28;96715;-83
2022/11/11 04:00:42;;;;;;;16.00;9.10;;;;;;;10.92;63.86;101646.56;4913842;28;97778;-83
2022/11/11 04:16:04;;;;;;;14.40;9.40;;;;;;;10.86;64.45;101663.28;4944950;28;97170;-85
2022/11/11 04:21:45;;;;;;;14.23;9.27;;;;;;;10.74;63.80;101647.69;4954505;28;96795;-83
2022/11/11 04:27:32;;;;;;;16.40;9.57;;;;;;;10.88;63.78;101662.38;4948301;28;97075;-83
2022/11/11 04:30:16;;;;;;;16.20;8.57;;;;;;;10.75;63.88;101649.41;4923704;28;97805;-86
2022/11/11 04:33:00;;;;;;;15.40;9.25;;;;;;;10.84;63.71;101667.66;4936729;28;97355;-83
2022/11/11 04:35:48;;;;;;;11.20;8.65;;;;;;;10.78;63.42;101671.25;4947235;28;97190;-83
2022/11/11 04:41:35;;;;;;;17.30;9.35;;;;;;;10.80;63.66;101671.25;4940478;28;96799;-84
2022/11/11 04:47:21;;;;;;;13.90;8.15;;;;;;;10.77;64.11;101668.66;4951272;28;97222;-83
2022/11/11 04:50:06;;;;;;;14.80;8.50;;;;;;;10.72;64.12;101657.34;4952107;28;97428;-86
2022/11/11 04:52:50;;;;;;;13.18;7.82;;;;;;;10.74;63.70;101663.44;4916816;28;96906;-84
2022/11/11 04:58:36;;;;;;;18.27;8.65;;;;;;;10.76;63.38;101667.78;4937947;28;97502;-86
2022/11/11 05:03:14;;;;;;;15.68;9.07;;;;;;;10.74;63.78;101668.69;4920185;28;97192;-83
2022/11/11 05:04:24;;;;;;;14.35;8.25;;;;;;;10.68;63.29;101666.16;4936436;28;97394;-83
2022/11/11 05:10:11;;;;;;;13.48;7.70;;;;;;;10.61;63.59;101657.47;4938781;28;98883;-84
2022/11/11 05:21:19;;;;;;;12.48;7.20;;;;;;;10.58;63.64;101653.13;4920525;28;97078;-83
2022/11/11 05:22:34;;;;;;;8.90;7.03;;;;;;;10.53;63.88;101644.47;4948399;28;97178;-89
2022/11/11 05:25:24;;;;;;;16.25;8.15;;;;;;;10.54;63.67;101642.69;4925675;28;97306;-83
2022/11/11 05:28:08;;;;;;;9.88;6.85;;;;;;;10.48;63.98;101642.78;4912524;28;97034;-84
2022/11/11 05:30:52;;;;;;;13.93;7.65;;;;;;;10.47;63.99;101657.66;4936418;28;96894;-84
2022/11/11 05:33:36;;;;;;;11.68;7.43;;;;;;;10.50;63.91;101651.47;4920133;28;97282;-85
2022/11/11 05:36:20;;;;;;;13.25;7.35;;;;;;;10.48;64.16;101655.91;4932743;28;97066;-83
2022/11/11 05:39:04;;;;;;;11.77;7.63;;;;;;;10.33;64.04;101641.22;4903679;28;97133;-83
2022/11/11 05:41:48;;;;;;;14.90;7.75;;;;;;;10.33;64.47;101659.59;4918382;28;98168;-87
2022/11/11 05:44:32;;;;;;;13.88;7.70;;;;;;;10.32;64.21;101665.72;4937036;28;97629;-87
2022/11/11 05:47:16;;;;;;;12.20;7.30;;;;;;;10.31;64.35;101664.84;4917252;28;97292;-83
2022/11/11 05:49:59;;;;;;;19.25;8.25;;;;;;;10.36;64.42;101657.78;4932569;28;98467;-84
2022/11/11 05:52:48;;;;;;;13.15;7.93;;;;;;;10.36;64.31;101665.66;4916340;28;97112;-86
2022/11/11 05:55:32;;;;;;;15.60;7.55;;;;;;;10.38;64.23;101661.28;4931672;28;98095;-89
2022/11/11 05:58:18;;;;;;;10.02;7.03;;;;;;;10.39;64.00;101660.38;4931132;28;97524;-83
2022/11/11 06:01:01;;;;;;;13.60;7.30;;;;;;;10.22;64.53;101650.94;4925586;28;97164;-83
2022/11/11 06:03:46;;;;;;;9.73;6.72;;;;;;;10.26;64.52;101668.38;4914353;28;97085;-85
2022/11/11 06:06:30;;;;;;;12.27;7.45;;;;;;;10.33;64.59;101685.84;4946478;28;97725;-84
2022/11/11 06:09:14;;;;;;;13.65;7.60;;;;;;;10.33;64.51;101677.97;4916666;28;97203;-85
2022/11/11 06:11:59;;;;;;;12.05;7.45;;;;;;;10.33;64.64;101693.72;4936157;28;97470;-83
2022/11/11 06:14:43;;;;;;;12.00;6.95;;;;;;;10.37;64.55;101698.03;4934152;28;97027;-83
2022/11/11 06:17:27;;;;;;;16.75;7.03;;;;;;;10.43;64.52;101708.44;4932551;28;97243;-83
2022/11/11 06:20:11;;;;;;;12.07;7.13;;;;;;;10.41;64.75;101715.47;4920715;28;97894;-83
2022/11/11 06:22:55;;;;;;;14.13;7.93;;;;;;;10.51;64.01;101718.88;4921093;28;97076;-83
2022/11/11 06:28:54;;;;;;;13.15;7.55;;;;;;;10.42;64.74;101707.59;4933097;28;97300;-84
2022/11/11 06:31:38;;;;;;;14.90;9.02;;;;;;;10.34;64.86;101700.69;4918650;28;98125;-84
2022/11/11 06:34:22;;;;;;;16.38;8.38;;;;;;;10.36;64.35;101691.91;4927842;28;97375;-83
2022/11/11 06:37:06;;;;;;;11.75;7.60;;;;;;;10.32;64.81;101695.44;4931143;28;97245;-87
2022/11/11 06:39:49;;;;;;;12.18;8.13;;;;;;;10.36;64.37;101688.44;4919401;28;97371;-82
2022/11/11 06:42:37;;;;;;;18.30;9.23;;;;;;;10.31;64.66;101704.22;4938114;28;97168;-83
2022/11/11 06:45:22;;;;;;;14.82;9.10;;;;;;;10.33;64.51;101701.59;4918390;28;97304;-83
2022/11/11 06:48:06;;;;;;;18.42;10.88;;;;;;;10.38;64.54;101705.00;4916213;28;97276;-88
2022/11/11 06:50:51;;;;;;;12.18;8.98;;;;;;;10.23;64.59;101687.63;4926332;28;98009;-83
2022/11/11 06:53:35;;;;;;;19.15;8.93;;;;;;;10.30;64.94;101706.88;4929959;28;97596;-84
2022/11/11 06:56:19;;;;;;;13.45;8.85;;;;;;;10.32;64.95;101716.44;4913989;28;97305;-84
2022/11/11 06:59:03;;;;;;;16.50;10.63;;;;;;;10.32;64.77;101713.81;4916091;28;97209;-83
2022/11/11 07:01:49;;;;;;;20.38;12.73;;;;;;;10.37;65.04;101727.75;4917160;28;97146;-87
2022/11/11 07:04:33;;;;;;;17.08;10.63;;;;;;;10.31;64.76;101700.72;4918134;28;97441;-83
2022/11/11 07:07:17;;;;;;;18.38;11.68;;;;;;;10.41;64.85;101712.84;4933592;28;97427;-84
2022/11/11 07:10:01;;;;;;;18.23;10.40;;;;;;;10.43;65.07;101700.56;4946829;28;97091;-83
2022/11/11 07:12:45;;;;;;;16.20;10.27;;;;;;;10.38;64.99;101705.91;4915447;28;97911;-83
2022/11/11 07:15:28;;;;;;;15.25;9.65;;;;;;;10.39;64.77;101701.50;4931134;28;97062;-84
2022/11/11 07:18:12;;;;;;;23.17;12.48;;;;;;;10.43;64.94;101704.06;4912042;28;97113;-83
2022/11/11 07:20:56;;;;;;;19.88;11.23;;;;;;;10.40;65.00;101682.25;4929250;28;96812;-83
2022/11/11 07:23:40;;;;;;;15.93;9.63;;;;;;;10.43;65.43;101695.31;4919730;28;97324;-84
2022/11/11 07:26:24;;;;;;;19.92;11.30;;;;;;;10.46;64.66;101704.94;4916769;28;97204;-84
2022/11/11 07:29:08;;;;;;;22.05;12.95;;;;;;;10.51;65.25;101708.38;4927098;28;96802;-88
2022/11/11 07:31:52;;;;;;;24.10;13.15;;;;;;;10.57;65.28;101706.53;4927431;28;97201;-84
2022/11/11 07:34:36;;;;;;;32.13;15.45;;;;;;;10.54;64.85;101711.81;4917512;28;97013;-84
2022/11/11 07:37:20;;;;;;;23.67;12.68;;;;;;;10.57;65.66;101714.41;4932901;28;97089;-83
2022/11/11 07:40:05;;;;;;;24.20;12.60;;;;;;;10.62;65.10;101711.75;4931715;28;97115;-84
2022/11/11 07:42:49;;;;;;;31.85;15.07;;;;;;;10.64;65.35;101696.81;4936351;28;96678;-85
2022/11/11 07:45:33;;;;;;;26.70;13.43;;;;;;;10.72;65.04;101712.50;4916564;28;97919;-83
2022/11/11 07:48:17;;;;;;;23.40;14.77;;;;;;;10.73;65.00;101703.72;4931719;28;97290;-84
2022/11/11 07:51:01;;;;;;;21.23;11.40;;;;;;;10.67;64.73;101694.16;4924580;28;97061;-83
2022/11/11 07:53:45;;;;;;;23.98;11.07;;;;;;;10.74;65.14;101706.34;4943606;28;96912;-83
2022/11/11 07:56:29;;;;;;;13.43;9.82;;;;;;;10.79;65.03;101722.91;4922067;28;97149;-83
2022/11/11 07:59:12;;;;;;;16.35;10.73;;;;;;;10.80;65.14;101714.13;4921128;28;96970;-84
2022/11/11 08:01:56;;;;;;;58.70;22.10;;;;;;;10.82;65.42;101717.63;4932754;28;96690;-83
2022/11/11 08:04:40;;;;;;;114.55;36.95;;;;;;;10.83;64.78;101718.47;4917338;28;97239;-84
2022/11/11 08:07:25;;;;;;;74.50;24.92;;;;;;;10.81;65.08;101707.13;4936024;28;97924;-82
2022/11/11 08:10:10;;;;;;;58.05;19.40;;;;;;;10.91;65.26;101724.50;4939146;28;97071;-83
2022/11/11 08:16:09;;;;;;;20.98;11.60;;;;;;;10.94;65.21;101724.47;4939178;28;97021;-82
2022/11/11 08:18:53;;;;;;;24.67;12.07;;;;;;;10.99;65.35;101724.38;4924376;28;97113;-83
2022/11/11 08:21:37;;;;;;;18.85;10.32;;;;;;;11.00;65.39;101720.88;4918968;28;97475;-85
2022/11/11 08:24:21;;;;;;;18.63;11.60;;;;;;;11.08;65.19;101727.78;4934693;28;97059;-83
2022/11/11 08:27:05;;;;;;;25.98;14.93;;;;;;;11.02;65.13;101704.19;4930547;28;97092;-83
2022/11/11 08:29:49;;;;;;;37.15;18.25;;;;;;;11.13;64.92;101724.22;4932945;28;97110;-84
2022/11/11 08:32:34;;;;;;;30.35;15.63;;;;;;;11.12;65.10;101706.72;4934883;28;97208;-83
2022/11/11 08:35:19;;;;;;;26.17;13.93;;;;;;;11.20;65.30;101736.34;4933330;28;96883;-83
2022/11/11 08:38:03;;;;;;;17.73;11.23;;;;;;;11.21;65.28;101732.84;4922423;28;96887;-83
2022/11/11 08:40:46;;;;;;;25.48;14.52;;;;;;;11.20;65.33;101737.25;4935717;28;97519;-84
2022/11/11 08:43:31;;;;;;;20.85;11.82;;;;;;;11.32;64.80;101744.97;4935402;28;97106;-84
2022/11/11 08:46:15;;;;;;;15.55;10.60;;;;;;;11.37;65.51;101744.88;4919096;28;96800;-84
2022/11/11 08:48:59;;;;;;;14.57;9.07;;;;;;;11.30;65.47;101712.56;4936785;28;96979;-84
2022/11/11 08:51:42;;;;;;;14.48;8.75;;;;;;;11.44;64.91;101733.38;4920321;28;97117;-85
2022/11/11 08:54:26;;;;;;;18.38;8.35;;;;;;;11.40;64.61;101728.19;4937181;28;97772;-83
2022/11/11 08:57:10;;;;;;;16.27;8.32;;;;;;;11.49;65.08;101721.03;4911354;28;96778;-84
2022/11/11 08:59:54;;;;;;;18.75;7.78;;;;;;;11.54;64.88;101728.84;4934202;28;97217;-86
2022/11/11 09:02:38;;;;;;;16.00;7.75;;;;;;;11.55;64.87;101731.47;4916395;28;98792;-85
2022/11/11 09:05:22;;;;;;;14.63;8.25;;;;;;;11.48;64.84;101707.91;4928009;28;97294;-85
2022/11/11 09:08:07;;;;;;;16.15;7.80;;;;;;;11.65;64.86;101744.47;4935022;28;97121;-85
2022/11/11 09:10:51;;;;;;;15.93;8.95;;;;;;;11.63;64.89;101733.94;4917825;28;97450;-84
2022/11/11 09:13:35;;;;;;;17.45;7.85;;;;;;;11.79;64.93;101740.72;4916857;28;97143;-84
2022/11/11 09:16:19;;;;;;;13.68;7.60;;;;;;;11.74;64.89;101728.53;4943168;28;97312;-85
2022/11/11 09:19:02;;;;;;;11.35;7.18;;;;;;;11.80;64.87;101741.56;4923247;28;96848;-84
2022/11/11 09:21:46;;;;;;;16.25;8.23;;;;;;;11.91;64.29;101744.06;4928519;28;97146;-86
2022/11/11 09:24:30;;;;;;;16.98;8.20;;;;;;;11.99;64.33;101745.69;4927481;28;97776;-84
2022/11/11 09:27:14;;;;;;;15.27;7.50;;;;;;;12.11;64.39;101757.75;4939739;28;97139;-85
2022/11/11 09:29:58;;;;;;;18.25;8.55;;;;;;;12.18;64.02;101758.50;4927213;28;98009;-83
2022/11/11 09:32:42;;;;;;;17.80;9.02;;;;;;;12.26;64.25;101761.00;4918165;28;96790;-87
2022/11/11 09:35:26;;;;;;;12.63;7.45;;;;;;;12.36;64.32;101758.19;4951594;28;97140;-88
2022/11/11 09:38:10;;;;;;;15.10;7.90;;;;;;;12.45;64.11;101759.78;4933987;28;97196;-88
2022/11/11 09:41:05;;;;;;;16.55;7.22;;;;;;;12.52;64.51;101747.34;4933179;28;96959;-92
2022/11/11 09:43:49;;;;;;;14.13;7.78;;;;;;;12.51;63.87;101740.31;4948588;28;97149;-90
2022/11/11 09:46:48;;;;;;;13.48;7.80;;;;;;;12.66;64.24;101759.34;4933529;28;97286;-89
2022/11/11 09:49:55;;;;;;;11.48;7.47;;;;;;;12.73;64.02;101749.53;4942059;28;97555;-89
2022/11/11 09:52:53;;;;;;;9.63;6.40;;;;;;;12.76;63.31;101740.72;4929805;28;96733;-92
2022/11/11 09:56:00;;;;;;;12.27;6.55;;;;;;;12.81;62.92;101747.63;4914788;28;96674;-92
2022/11/11 09:58:56;;;;;;;13.13;7.60;;;;;;;12.84;62.22;101746.69;4941732;28;97200;-89
2022/11/11 10:01:53;;;;;;;11.02;7.22;;;;;;;12.89;62.25;101740.44;4948555;28;97683;-92
2022/11/11 10:04:59;;;;;;;12.50;6.13;;;;;;;12.98;62.02;101730.59;4934362;28;98186;-91
2022/11/11 10:07:53;;;;;;;11.52;5.97;;;;;;;13.04;61.89;101728.69;4928114;28;96881;-92
2022/11/11 10:10:48;;;;;;;10.70;6.25;;;;;;;13.11;61.45;101727.63;4937258;28;97175;-89
2022/11/11 10:13:34;;;;;;;11.43;6.55;;;;;;;13.21;61.59;101728.31;4911127;28;97180;-91
2022/11/11 10:16:43;;;;;;;12.60;7.05;;;;;;;13.17;61.44;101720.50;4936126;28;97099;-87
2022/11/11 10:19:39;;;;;;;12.68;6.72;;;;;;;13.35;61.24;101734.19;4949482;28;97122;-91
2022/11/11 10:22:32;;;;;;;10.77;6.65;;;;;;;13.42;60.76;101734.03;4919759;28;96729;-92
2022/11/11 10:25:24;;;;;;;12.93;6.72;;;;;;;13.45;60.49;101728.69;4947918;28;97500;-91
2022/11/11 10:28:14;;;;;;;9.68;5.72;;;;;;;13.52;61.00;101731.13;4920308;28;97160;-91
2022/11/11 10:30:59;;;;;;;9.68;6.03;;;;;;;13.52;60.49;101717.06;4920806;28;97114;-89
2022/11/11 10:33:53;;;;;;;10.13;5.72;;;;;;;13.56;59.98;101727.53;4931390;28;97602;-86
2022/11/11 10:36:43;;;;;;;9.55;6.18;;;;;;;13.63;60.44;101716.81;4935392;28;97087;-84
2022/11/11 10:39:52;;;;;;;13.65;7.18;;;;;;;13.67;60.47;101719.38;4913362;28;96890;-83
2022/11/11 10:42:37;;;;;;;13.82;6.63;;;;;;;13.56;60.33;101703.78;4925006;28;96862;-86
2022/11/11 10:45:59;;;;;;;12.50;6.18;;;;;;;13.57;60.48;101710.78;4918938;28;97273;-84
2022/11/11 10:48:51;;;;;;;9.65;5.82;;;;;;;13.69;59.65;101721.94;4935738;28;97103;-83
2022/11/11 10:51:42;;;;;;;10.05;5.93;;;;;;;13.69;60.00;101724.59;4916417;28;96870;-85
2022/11/11 10:54:34;;;;;;;10.25;6.70;;;;;;;13.68;59.78;101718.44;4935398;28;97127;-84
2022/11/11 10:57:32;;;;;;;14.05;5.38;;;;;;;13.67;59.78;101716.72;4929311;28;97210;-85
2022/11/11 11:00:15;;;;;;;8.82;5.07;;;;;;;13.65;60.13;101710.59;4912093;28;97136;-87
2022/11/11 11:03:30;;;;;;;10.95;5.70;;;;;;;13.67;59.56;101714.09;4916714;28;96872;-83
2022/11/11 11:06:20;;;;;;;11.05;5.63;;;;;;;13.71;59.99;101710.44;4929278;28;96803;-83
2022/11/11 11:09:11;;;;;;;9.13;5.00;;;;;;;13.73;59.76;101705.13;4945941;28;97171;-84
2022/11/11 11:12:14;;;;;;;11.13;5.25;;;;;;;13.75;59.67;101716.50;4927562;28;97074;-84
2022/11/11 11:15:03;;;;;;;10.20;5.70;;;;;;;13.67;59.56;101698.25;4946214;28;96869;-84
2022/11/11 11:17:47;;;;;;;17.15;6.78;;;;;;;13.80;59.84;101710.22;4928114;28;97172;-84
2022/11/11 11:20:31;;;;;;;10.00;5.93;;;;;;;13.79;60.00;101700.56;4933585;28;97169;-86
2022/11/11 11:23:34;;;;;;;12.02;6.25;;;;;;;13.82;60.20;101710.19;4934501;28;98303;-89
2022/11/11 11:26:18;;;;;;;11.30;5.20;;;;;;;13.85;59.75;101717.16;4910359;28;97062;-89
2022/11/11 11:29:02;;;;;;;8.93;5.40;;;;;;;13.80;59.91;101704.06;4932634;28;96949;-89
2022/11/11 11:31:46;;;;;;;10.10;5.95;;;;;;;13.84;59.52;101697.81;4914590;28;97133;-90
2022/11/11 11:34:50;;;;;;;11.57;5.25;;;;;;;13.88;59.44;101699.47;4937200;28;97181;-89
2022/11/11 11:37:49;;;;;;;8.18;5.35;;;;;;;13.92;59.72;101698.47;4931559;28;96741;-89
2022/11/11 11:40:52;;;;;;;10.40;5.15;;;;;;;13.96;59.23;101701.88;4952130;28;97224;-89
2022/11/11 11:43:38;;;;;;;8.93;5.32;;;;;;;13.96;59.04;101709.81;4914169;28;97913;-88
2022/11/11 11:46:37;;;;;;;10.75;6.00;;;;;;;13.91;59.71;101712.59;4937496;28;97157;-89
2022/11/11 11:49:27;;;;;;;10.77;5.25;;;;;;;13.97;59.57;101711.56;4930266;28;97638;-89
2022/11/11 11:52:42;;;;;;;10.65;6.15;;;;;;;13.92;59.02;101702.88;4952620;28;97844;-90
2022/11/11 11:55:44;;;;;;;10.10;6.18;;;;;;;13.95;59.45;101706.31;4948319;28;97480;-89
2022/11/11 11:58:46;;;;;;;11.63;5.80;;;;;;;13.93;59.51;101697.59;4921777;28;97078;-89
2022/11/11 12:01:50;;;;;;;13.40;6.18;;;;;;;13.98;59.99;101684.25;4940971;28;97923;-89
2022/11/11 12:04:53;;;;;;;9.38;5.30;;;;;;;13.99;59.56;101692.16;4942722;28;98186;-92
2022/11/11 12:07:52;;;;;;;10.50;5.38;;;;;;;14.00;59.77;101688.59;4933024;28;97325;-85
2022/11/11 12:10:40;;;;;;;13.38;6.20;;;;;;;14.01;60.03;101694.72;4946814;28;98415;-86
2022/11/11 12:13:30;;;;;;;9.43;5.63;;;;;;;14.00;59.57;101693.88;4922636;28;97385;-85
2022/11/11 12:16:14;;;;;;;10.10;6.10;;;;;;;13.99;60.02;101692.16;4934368;28;97107;-85
2022/11/11 12:19:20;;;;;;;9.00;5.53;;;;;;;13.97;59.81;101690.44;4928328;28;98236;-85
2022/11/11 12:22:32;;;;;;;10.20;6.20;;;;;;;14.03;59.42;101691.13;4949106;28;97108;-89
2022/11/11 12:25:28;;;;;;;;;;;;;;;14.01;59.54;101700.88;4951168;28;97683;-86
2022/11/11 12:28:32;;;;;;;13.18;5.55;;;;;;;13.99;59.33;101681.59;4929883;28;97200;-82
2022/11/11 12:31:48;;;;;;;10.35;5.93;;;;;;;14.07;59.62;101686.63;4936903;28;97188;-94
2022/11/11 12:34:51;;;;;;;13.82;5.90;;;;;;;14.11;59.36;101680.38;4920663;28;96858;-89
2022/11/11 12:38:00;;;;;;;10.32;6.15;;;;;;;14.06;58.77;101682.28;4928801;28;97313;-90
2022/11/11 12:40:47;;;;;;;9.27;5.28;;;;;;;14.05;59.10;101677.91;4940981;28;96750;-89
2022/11/11 12:43:30;;;;;;;8.68;5.50;;;;;;;14.12;58.96;101673.31;4954805;28;97144;-88
2022/11/11 12:46:37;;;;;;;8.93;5.32;;;;;;;14.11;58.91;101656.63;4929898;28;97916;-87
2022/11/11 12:49:33;;;;;;;11.00;5.50;;;;;;;14.12;59.42;101654.84;4919934;28;97859;-90
2022/11/11 12:52:41;;;;;;;11.02;6.20;;;;;;;14.11;59.05;101653.09;4942513;28;100260;-93
2022/11/11 12:56:03;;;;;;;10.25;5.88;;;;;;;14.10;59.41;101669.84;4933667;28;97166;-93
2022/11/11 12:59:00;;;;;;;9.45;6.35;;;;;;;14.09;58.82;101679.56;4949568;28;100169;-93
2022/11/11 13:01:56;;;;;;;15.05;6.45;;;;;;;14.08;59.32;101672.53;4922970;28;96723;-94
2022/11/11 13:04:40;;;;;;;11.25;6.40;;;;;;;14.11;59.38;101671.56;4917383;28;97357;-94
2022/11/11 13:07:49;;;;;;;11.63;5.95;;;;;;;14.10;59.13;101662.78;4947085;28;97327;-90
2022/11/11 13:10:46;;;;;;;11.93;6.63;;;;;;;14.10;59.07;101661.94;4931549;28;97166;-93
2022/11/11 13:14:04;;;;;;;12.38;5.97;;;;;;;14.07;59.69;101668.16;4924564;28;97203;-93
2022/11/11 13:16:54;;;;;;;9.38;5.85;;;;;;;14.07;59.35;101665.50;4940169;28;96801;-93
2022/11/11 13:19:44;;;;;;;9.95;5.75;;;;;;;14.07;59.17;101676.06;4942211;28;97323;-92
2022/11/11 13:22:29;;;;;;;10.60;6.57;;;;;;;14.07;59.71;101664.66;4914462;28;97394;-93
2022/11/11 13:25:17;;;;;;;7.32;4.85;;;;;;;14.08;59.38;101669.00;4945956;28;96822;-93
2022/11/11 13:28:38;;;;;;;11.35;6.53;;;;;;;14.00;59.46;101656.03;4918705;28;96952;-93
2022/11/11 13:31:32;;;;;;;10.65;6.20;;;;;;;14.02;59.53;101647.19;4884620;28;97188;-88
2022/11/11 13:34:16;;;;;;;12.00;6.55;;;;;;;14.01;59.83;101645.41;4939254;28;96970;-93
2022/11/11 13:37:05;;;;;;;10.95;7.03;;;;;;;14.01;59.67;101648.06;4916186;28;97543;-94
2022/11/11 13:39:50;;;;;;;13.77;7.35;;;;;;;14.01;59.94;101655.97;4910097;28;97329;-93
2022/11/11 13:42:49;;;;;;;11.27;7.18;;;;;;;14.00;59.34;101650.75;4948413;28;97681;-93
2022/11/11 13:45:41;;;;;;;12.95;7.03;;;;;;;14.02;59.47;101659.47;4917816;28;96800;-94
2022/11/11 13:48:37;;;;;;;15.30;8.07;;;;;;;13.90;60.00;101651.91;4915415;28;98142;-92
2022/11/11 13:51:34;;;;;;;11.77;7.38;;;;;;;13.94;59.96;101664.13;4930936;28;97255;-88
2022/11/11 13:54:25;;;;;;;11.77;7.40;;;;;;;13.94;60.13;101674.69;4924670;28;96914;-93
2022/11/11 13:57:12;;;;;;;12.63;7.88;;;;;;;13.87;60.27;101649.34;4931381;28;97348;-92
2022/11/11 13:59:58;;;;;;;11.93;6.90;;;;;;;13.91;59.85;101665.06;4931131;28;96969;-89
2022/11/11 14:02:43;;;;;;;12.25;8.20;;;;;;;13.87;60.24;101670.47;4918052;28;97555;-93
2022/11/11 14:05:27;;;;;;;12.18;7.30;;;;;;;13.87;60.21;101678.38;4923940;28;97218;-88